createdAt,value
2019-04-21T00:01:20.341Z,6.30
2019-04-21T00:03:56.692Z,6.30
2019-04-21T00:06:43.955Z,6.30
2019-04-21T00:09:21.047Z,6.30
2019-04-21T00:11:49.809Z,6.30
2019-04-21T00:14:08.949Z,6.30
2019-04-21T00:16:35.715Z,6.20
2019-04-21T00:19:34.957Z,6.20
2019-04-21T00:22:14.916Z,6.10
2019-04-21T00:24:50.700Z,6.00
2019-04-21T00:27:24.582Z,6.00
2019-04-21T00:29:59.132Z,6.00
2019-04-21T00:32:25.762Z,5.90
2019-04-21T00:34:51.893Z,5.90
2019-04-21T00:37:24.063Z,5.80
2019-04-21T00:40:13.186Z,5.80
2019-04-21T00:42:37.407Z,5.80
2019-04-21T00:45:06.918Z,5.80
2019-04-21T00:47:38.816Z,5.80
2019-04-21T00:50:12.725Z,5.80
2019-04-21T00:53:02.210Z,5.80
2019-04-21T00:55:48.560Z,5.80
2019-04-21T00:58:23.917Z,5.70
2019-04-21T01:00:51.199Z,5.70
2019-04-21T01:03:26.807Z,5.70
2019-04-21T01:05:57.302Z,5.60
2019-04-21T01:08:27.521Z,5.60
2019-04-21T01:10:55.375Z,5.60
2019-04-21T01:13:39.599Z,5.50
2019-04-21T01:16:10.146Z,5.50
2019-04-21T01:18:32.507Z,5.50
2019-04-21T01:20:45.946Z,5.50
2019-04-21T01:23:16.761Z,5.40
2019-04-21T01:26:00.575Z,5.40
2019-04-21T01:28:36.569Z,5.30
2019-04-21T01:31:08.834Z,5.30
2019-04-21T01:33:44.687Z,5.20
2019-04-21T01:36:10.993Z,5.10
2019-04-21T01:38:48.199Z,5.10
2019-04-21T01:41:21.805Z,5.00
2019-04-21T01:43:53.463Z,5.00
2019-04-21T01:46:14.731Z,4.90
2019-04-21T01:48:49.378Z,4.80
2019-04-21T01:51:23.526Z,4.80
2019-04-21T01:54:18.620Z,4.80
2019-04-21T01:56:55.241Z,4.80
2019-04-21T01:59:33.462Z,4.80
2019-04-21T02:02:06.212Z,4.90
2019-04-21T02:04:42.860Z,4.90
2019-04-21T02:07:10.895Z,4.90
2019-04-21T02:09:45.532Z,4.80
2019-04-21T02:12:14.775Z,4.70
2019-04-21T02:14:50.321Z,4.60
2019-04-21T02:17:17.353Z,4.60
2019-04-21T02:19:44.156Z,4.40
2019-04-21T02:22:21.579Z,4.40
2019-04-21T02:24:57.761Z,4.30
2019-04-21T02:27:26.139Z,4.30
2019-04-21T02:30:03.561Z,4.20
2019-04-21T02:35:18.706Z,4.20
2019-04-21T02:37:44.859Z,4.20
2019-04-21T02:42:47.898Z,4.10
2019-04-21T02:45:17.718Z,4.00
2019-04-21T02:50:21.185Z,4.00
2019-04-21T02:58:02.006Z,3.90
2019-04-21T03:03:29.364Z,3.80
2019-04-21T03:06:08.626Z,3.80
2019-04-21T03:08:44.384Z,3.70
2019-04-21T03:11:08.660Z,3.70
2019-04-21T03:21:16.473Z,3.50
2019-04-21T03:26:36.329Z,3.50
2019-04-21T03:34:28.977Z,3.50
2019-04-21T03:36:47.681Z,3.40
2019-04-21T03:38:53.226Z,3.40
2019-04-21T03:41:31.684Z,3.40
2019-04-21T03:44:08.052Z,3.30
2019-04-21T03:46:47.378Z,3.30
2019-04-21T03:49:10.588Z,3.30
2019-04-21T03:51:39.473Z,3.30
2019-04-21T03:54:09.189Z,3.40
2019-04-21T03:59:03.738Z,3.40
2019-04-21T04:02:05.849Z,3.40
2019-04-21T04:05:03.385Z,3.30
2019-04-21T04:10:14.115Z,3.20
2019-04-21T04:12:52.175Z,3.20
2019-04-21T04:15:24.626Z,3.20
2019-04-21T04:17:48.219Z,3.20
2019-04-21T04:20:29.881Z,3.10
2019-04-21T04:22:56.130Z,3.10
2019-04-21T04:30:35.655Z,3.10
2019-04-21T04:32:59.151Z,3.10
2019-04-21T04:38:15.419Z,3.10
2019-04-21T04:40:48.249Z,3.20
2019-04-21T04:43:23.038Z,3.30
2019-04-21T04:46:06.771Z,3.30
2019-04-21T04:48:19.407Z,3.30
2019-04-21T04:50:53.499Z,3.40
2019-04-21T04:53:31.169Z,3.40
2019-04-21T04:56:01.758Z,3.40
2019-04-21T04:58:29.633Z,3.50
2019-04-21T05:01:08.612Z,3.60
2019-04-21T05:03:44.357Z,3.70
2019-04-21T05:11:50.843Z,4.30
2019-04-21T05:14:18.307Z,4.70
2019-04-21T05:21:38.996Z,6.10
2019-04-21T05:24:00.038Z,6.40
2019-04-21T05:26:27.435Z,6.60
2019-04-21T05:29:00.444Z,6.80
2019-04-21T05:32:17.171Z,7.00
2019-04-21T05:35:00.148Z,7.20
2019-04-21T05:37:35.154Z,7.50
2019-04-21T05:40:13.814Z,7.80
2019-04-21T05:42:50.966Z,8.20
2019-04-21T05:45:26.917Z,8.60
2019-04-21T05:50:35.052Z,8.90
2019-04-21T05:53:17.576Z,9.20
2019-04-21T05:55:51.759Z,9.50
2019-04-21T05:58:14.608Z,9.70
2019-04-21T06:01:16.573Z,9.90
2019-04-21T06:03:30.646Z,10.00
2019-04-21T06:06:10.366Z,10.20
2019-04-21T06:08:32.841Z,10.30
2019-04-21T06:11:00.234Z,10.50
2019-04-21T06:13:46.436Z,10.70
2019-04-21T06:16:23.158Z,11.00
2019-04-21T06:18:48.837Z,11.10
2019-04-21T06:21:14.137Z,11.40
2019-04-21T06:23:40.316Z,11.80
2019-04-21T06:26:28.000Z,12.10
2019-04-21T06:28:46.730Z,12.40
2019-04-21T06:31:33.910Z,12.60
2019-04-21T06:36:36.219Z,12.30
2019-04-21T06:44:08.256Z,12.80
2019-04-21T06:49:18.773Z,13.10
2019-04-21T06:51:35.786Z,13.30
2019-04-21T06:54:30.535Z,13.60
2019-04-21T06:59:10.912Z,13.90
2019-04-21T07:01:55.266Z,14.10
2019-04-21T07:04:22.541Z,14.30
2019-04-21T07:11:52.453Z,14.80
2019-04-21T07:17:08.911Z,15.00
2019-04-21T07:19:35.141Z,15.40
2019-04-21T07:22:03.050Z,15.70
2019-04-21T07:24:41.964Z,15.60
2019-04-21T07:27:11.605Z,15.80
2019-04-21T07:29:44.582Z,15.70
2019-04-21T07:32:09.428Z,15.50
2019-04-21T07:34:49.859Z,15.70
2019-04-21T07:37:10.267Z,16.10
2019-04-21T07:39:44.679Z,16.20
2019-04-21T07:42:13.270Z,16.50
2019-04-21T07:44:44.783Z,16.70
2019-04-21T07:47:23.411Z,16.90
2019-04-21T07:52:53.377Z,17.10
2019-04-21T07:57:44.212Z,17.60
2019-04-21T08:00:29.256Z,17.80
2019-04-21T08:02:53.971Z,17.90
2019-04-21T08:05:29.408Z,17.60
2019-04-21T08:08:01.648Z,17.90
2019-04-21T08:10:28.536Z,18.10
2019-04-21T08:12:58.305Z,18.50
2019-04-21T08:15:34.251Z,18.70
2019-04-21T08:18:07.505Z,18.80
2019-04-21T08:20:34.624Z,18.90
2019-04-21T08:23:06.012Z,18.40
2019-04-21T08:25:45.934Z,18.50
2019-04-21T08:28:09.140Z,18.40
2019-04-21T08:30:45.279Z,18.20
2019-04-21T08:33:25.802Z,18.30
2019-04-21T08:36:06.008Z,18.20
2019-04-21T08:38:20.402Z,18.50
2019-04-21T08:40:49.729Z,18.80
2019-04-21T08:43:30.621Z,19.10
2019-04-21T08:45:56.987Z,19.30
2019-04-21T08:48:46.606Z,19.30
2019-04-21T08:51:15.271Z,19.40
2019-04-21T08:53:36.141Z,19.40
2019-04-21T08:56:21.511Z,19.70
2019-04-21T08:59:19.254Z,19.80
2019-04-21T09:02:02.612Z,20.20
2019-04-21T09:04:34.133Z,20.40
2019-04-21T09:07:12.851Z,21.00
2019-04-21T09:09:41.648Z,21.40
2019-04-21T09:12:10.986Z,21.60
2019-04-21T09:14:43.158Z,21.60
2019-04-21T09:17:07.834Z,21.80
2019-04-21T09:22:20.789Z,21.90
2019-04-21T09:24:52.581Z,22.10
2019-04-21T09:27:15.388Z,22.40
2019-04-21T09:29:39.284Z,22.60
2019-04-21T09:32:13.557Z,22.50
2019-04-21T09:34:42.372Z,22.40
2019-04-21T09:37:19.091Z,22.30
2019-04-21T09:39:45.185Z,21.60
2019-04-21T09:42:13.578Z,21.40
2019-04-21T09:44:47.736Z,21.60
2019-04-21T09:47:21.214Z,21.60
2019-04-21T09:49:47.669Z,21.80
2019-04-21T09:52:21.027Z,22.20
2019-04-21T09:54:58.321Z,22.00
2019-04-21T09:57:32.733Z,21.90
2019-04-21T10:00:02.169Z,21.90
2019-04-21T10:02:34.132Z,22.20
2019-04-21T10:04:55.000Z,22.10
2019-04-21T10:07:31.646Z,22.10
2019-04-21T10:09:58.243Z,22.00
2019-04-21T10:12:28.733Z,21.90
2019-04-21T10:14:59.427Z,21.90
2019-04-21T10:17:33.518Z,21.90
2019-04-21T10:20:03.311Z,21.80
2019-04-21T10:22:35.105Z,21.70
2019-04-21T10:25:06.721Z,21.40
2019-04-21T10:27:37.095Z,21.40
2019-04-21T10:30:08.138Z,21.40
2019-04-21T10:32:38.586Z,21.60
2019-04-21T10:35:08.930Z,20.80
2019-04-21T10:37:49.848Z,21.10
2019-04-21T10:40:11.765Z,21.60
2019-04-21T10:42:42.507Z,21.70
2019-04-21T10:45:14.786Z,21.20
2019-04-21T10:47:45.297Z,21.10
2019-04-21T10:50:16.297Z,21.20
2019-04-21T10:53:09.103Z,20.90
2019-04-21T10:55:54.447Z,21.00
2019-04-21T10:58:14.222Z,21.40
2019-04-21T11:00:46.190Z,21.60
2019-04-21T11:03:48.906Z,21.60
2019-04-21T11:06:20.981Z,21.30
2019-04-21T11:08:55.394Z,21.30
2019-04-21T11:11:23.855Z,21.10
2019-04-21T11:13:54.867Z,20.90
2019-04-21T11:16:25.014Z,20.90
2019-04-21T11:18:55.922Z,21.00
2019-04-21T11:21:27.151Z,21.20
2019-04-21T11:23:58.308Z,21.10
2019-04-21T11:26:30.148Z,21.20
2019-04-21T11:29:01.116Z,21.30
2019-04-21T11:31:33.355Z,21.10
2019-04-21T11:34:03.219Z,21.30
2019-04-21T11:36:33.281Z,21.50
2019-04-21T11:39:31.698Z,21.60
2019-04-21T11:41:54.055Z,21.50
2019-04-21T11:44:24.864Z,21.40
2019-04-21T11:46:56.392Z,21.40
2019-04-21T11:49:30.243Z,21.40
2019-04-21T11:51:58.710Z,21.70
2019-04-21T11:54:28.872Z,21.80
2019-04-21T11:57:00.668Z,21.80
2019-04-21T11:59:31.387Z,21.90
2019-04-21T12:02:01.543Z,21.70
2019-04-21T12:04:31.799Z,21.70
2019-04-21T12:07:01.886Z,21.70
2019-04-21T12:09:33.213Z,21.80
2019-04-21T12:12:03.498Z,21.40
2019-04-21T12:14:34.255Z,21.50
2019-04-21T12:17:05.826Z,21.50
2019-04-21T12:19:36.644Z,21.40
2019-04-21T12:22:14.444Z,21.40
2019-04-21T12:24:39.643Z,21.50
2019-04-21T12:27:09.922Z,21.60
2019-04-21T12:29:39.941Z,21.70
2019-04-21T12:32:30.542Z,21.80
2019-04-21T12:35:01.781Z,21.80
2019-04-21T12:37:32.914Z,21.80
2019-04-21T12:40:03.305Z,21.70
2019-04-21T12:42:34.457Z,21.80
2019-04-21T12:45:05.619Z,21.60
2019-04-21T12:47:35.581Z,21.60
2019-04-21T12:50:06.767Z,21.80
2019-04-21T12:52:37.811Z,21.90
2019-04-21T12:55:09.323Z,22.00
2019-04-21T12:57:41.248Z,22.10
2019-04-21T13:00:15.163Z,21.80
2019-04-21T13:02:45.561Z,21.80
2019-04-21T13:05:17.809Z,21.80
2019-04-21T13:07:49.090Z,21.90
2019-04-21T13:10:20.190Z,21.60
2019-04-21T13:12:52.065Z,21.70
2019-04-21T13:15:22.039Z,21.90
2019-04-21T13:17:52.249Z,21.90
2019-04-21T13:20:23.310Z,21.90
2019-04-21T13:22:54.348Z,22.10
2019-04-21T13:25:24.092Z,22.10
2019-04-21T13:27:54.494Z,21.90
2019-04-21T13:30:24.625Z,21.80
2019-04-21T13:32:55.512Z,21.90
2019-04-21T13:35:26.772Z,22.10
2019-04-21T13:37:58.306Z,22.00
2019-04-21T13:41:04.895Z,21.90
2019-04-21T13:43:25.220Z,21.80
2019-04-21T13:45:55.045Z,21.80
2019-04-21T13:48:26.375Z,21.60
2019-04-21T13:50:57.297Z,21.80
2019-04-21T13:53:28.496Z,21.70
2019-04-21T13:56:00.304Z,21.50
2019-04-21T13:58:30.495Z,21.50
2019-04-21T14:01:00.757Z,21.60
2019-04-21T14:03:31.386Z,21.80
2019-04-21T14:06:02.427Z,22.00
2019-04-21T14:08:33.496Z,22.00
2019-04-21T14:11:03.366Z,21.90
2019-04-21T14:13:34.252Z,21.80
2019-04-21T14:16:04.173Z,21.80
2019-04-21T14:18:34.290Z,21.60
2019-04-21T14:21:05.063Z,21.60
2019-04-21T14:23:40.583Z,21.60
2019-04-21T14:26:06.795Z,21.40
2019-04-21T14:28:36.729Z,21.30
2019-04-21T14:31:08.053Z,21.30
2019-04-21T14:33:40.250Z,21.30
2019-04-21T14:36:10.857Z,21.40
2019-04-21T14:38:40.789Z,21.40
2019-04-21T14:41:12.372Z,21.40
2019-04-21T14:43:42.234Z,21.30
2019-04-21T14:46:24.840Z,21.20
2019-04-21T14:49:19.444Z,21.20
2019-04-21T14:52:03.160Z,21.20
2019-04-21T14:55:00.903Z,21.10
2019-04-21T14:57:31.521Z,21.10
2019-04-21T15:00:02.917Z,21.10
2019-04-21T15:02:33.939Z,21.00
2019-04-21T15:05:04.215Z,21.00
2019-04-21T15:07:35.141Z,20.90
2019-04-21T15:10:13.287Z,20.80
2019-04-21T15:12:37.947Z,20.90
2019-04-21T15:15:09.821Z,20.90
2019-04-21T15:17:41.918Z,21.00
2019-04-21T15:20:15.858Z,21.00
2019-04-21T15:22:44.384Z,21.10
2019-04-21T15:25:16.194Z,21.10
2019-04-21T15:27:46.645Z,21.00
2019-04-21T15:30:16.629Z,21.00
2019-04-21T15:32:46.555Z,20.90
2019-04-21T15:35:17.403Z,20.80
2019-04-21T15:37:47.220Z,20.70
2019-04-21T15:40:30.249Z,20.70
2019-04-21T15:42:50.716Z,20.60
2019-04-21T15:45:21.070Z,20.60
2019-04-21T15:47:51.894Z,20.50
2019-04-21T15:50:23.152Z,20.50
2019-04-21T15:52:54.250Z,20.50
2019-04-21T15:56:02.458Z,20.40
2019-04-21T15:58:50.857Z,20.50
2019-04-21T16:01:30.241Z,20.40
2019-04-21T16:04:00.962Z,20.40
2019-04-21T16:06:32.015Z,20.30
2019-04-21T16:09:04.355Z,20.30
2019-04-21T16:11:33.719Z,20.30
2019-04-21T16:14:03.929Z,20.20
2019-04-21T16:16:36.061Z,20.20
2019-04-21T16:19:06.377Z,20.20
2019-04-21T16:21:40.597Z,20.20
2019-04-21T16:24:08.885Z,20.10
2019-04-21T16:26:40.500Z,20.10
2019-04-21T16:29:11.326Z,20.00
2019-04-21T16:31:42.705Z,20.00
2019-04-21T16:34:13.758Z,19.90
2019-04-21T16:36:43.682Z,19.90
2019-04-21T16:39:13.905Z,20.00
2019-04-21T16:41:44.578Z,20.00
2019-04-21T16:44:14.896Z,20.00
2019-04-21T16:46:45.434Z,20.00
2019-04-21T16:49:15.882Z,20.00
2019-04-21T16:51:48.247Z,20.00
2019-04-21T16:54:26.291Z,20.00
2019-04-21T16:57:11.994Z,19.90
2019-04-21T16:59:46.531Z,19.80
2019-04-21T17:02:16.495Z,19.60
2019-04-21T17:04:48.491Z,19.50
2019-04-21T17:07:20.016Z,19.40
2019-04-21T17:09:50.691Z,19.30
2019-04-21T17:12:22.759Z,19.30
2019-04-21T17:15:08.500Z,19.20
2019-04-21T17:17:48.059Z,19.10
2019-04-21T17:20:13.922Z,19.10
2019-04-21T17:22:31.410Z,19.10
2019-04-21T17:25:02.622Z,19.00
2019-04-21T17:27:33.384Z,19.00
2019-04-21T17:30:04.325Z,18.90
2019-04-21T17:32:38.771Z,18.80
2019-04-21T17:35:08.076Z,18.70
2019-04-21T17:37:38.581Z,18.60
2019-04-21T17:40:09.270Z,18.50
2019-04-21T17:42:47.453Z,18.40
2019-04-21T17:45:13.075Z,18.30
2019-04-21T17:47:50.653Z,18.20
2019-04-21T17:50:33.592Z,18.10
2019-04-21T17:53:10.768Z,18.00
2019-04-21T17:55:40.713Z,17.90
2019-04-21T17:58:27.204Z,17.70
2019-04-21T18:01:12.898Z,17.60
2019-04-21T18:03:45.985Z,17.60
2019-04-21T18:06:05.374Z,17.40
2019-04-21T18:08:46.515Z,17.30
2019-04-21T18:11:10.301Z,17.20
2019-04-21T18:13:34.748Z,17.10
2019-04-21T18:16:14.317Z,16.90
2019-04-21T18:18:39.092Z,16.90
2019-04-21T18:21:18.845Z,16.80
2019-04-21T18:24:05.693Z,16.70
2019-04-21T18:26:39.132Z,16.60
2019-04-21T18:29:05.480Z,16.40
2019-04-21T18:31:44.788Z,16.30
2019-04-21T18:34:33.822Z,16.20
2019-04-21T18:37:18.609Z,16.10
2019-04-21T18:39:59.623Z,16.00
2019-04-21T18:42:53.251Z,15.90
2019-04-21T18:45:57.203Z,15.80
2019-04-21T18:48:28.671Z,15.60
2019-04-21T18:51:17.092Z,15.50
2019-04-21T18:54:25.146Z,15.40
2019-04-21T18:56:50.989Z,15.40
2019-04-21T18:59:10.361Z,15.30
2019-04-21T19:01:52.042Z,15.30
2019-04-21T19:04:25.649Z,15.20
2019-04-21T19:07:11.139Z,15.10
2019-04-21T19:12:25.411Z,14.90
2019-04-21T19:14:52.222Z,14.80
2019-04-21T19:17:58.142Z,14.70
2019-04-21T19:20:07.426Z,14.60
2019-04-21T19:22:34.587Z,14.50
2019-04-21T19:25:04.773Z,14.40
2019-04-21T19:27:38.309Z,14.40
2019-04-21T19:30:36.393Z,14.30
2019-04-21T19:32:49.705Z,14.20
2019-04-21T19:35:06.060Z,14.20
2019-04-21T19:37:49.586Z,14.10
2019-04-21T19:40:31.364Z,14.00
2019-04-21T19:42:58.180Z,13.90
2019-04-21T19:45:39.657Z,13.90
2019-04-21T19:48:13.664Z,13.80
2019-04-21T19:50:51.542Z,13.70
2019-04-21T19:53:21.356Z,13.60
2019-04-21T19:55:40.437Z,13.50
2019-04-21T19:58:12.634Z,13.40
2019-04-21T20:00:44.481Z,13.30
2019-04-21T20:03:16.493Z,13.20
2019-04-21T20:06:00.402Z,13.10
2019-04-21T20:08:36.296Z,12.90
2019-04-21T20:11:18.260Z,12.70
2019-04-21T20:14:12.422Z,12.60
2019-04-21T20:16:23.121Z,12.40
2019-04-21T20:18:41.665Z,12.30
2019-04-21T20:21:08.135Z,12.10
2019-04-21T20:23:41.442Z,12.00
2019-04-21T20:26:15.531Z,12.00
2019-04-21T20:28:57.177Z,12.00
2019-04-21T20:31:36.480Z,11.90
2019-04-21T20:34:11.255Z,11.90
2019-04-21T20:36:51.850Z,11.90
2019-04-21T20:39:06.011Z,11.90
2019-04-21T20:41:45.771Z,11.80
2019-04-21T20:44:24.833Z,11.70
2019-04-21T20:46:51.568Z,11.60
2019-04-21T20:49:19.155Z,11.40
2019-04-21T20:52:06.107Z,11.40
2019-04-21T20:54:30.154Z,11.30
2019-04-21T20:57:04.469Z,11.20
2019-04-21T20:59:31.782Z,11.10
2019-04-21T21:02:10.232Z,10.90
2019-04-21T21:04:37.673Z,10.90
2019-04-21T21:07:35.667Z,10.80
2019-04-21T21:10:00.473Z,10.70
2019-04-21T21:14:55.528Z,10.50
2019-04-21T21:20:07.839Z,10.50
2019-04-21T21:22:41.100Z,10.50
2019-04-21T21:25:14.587Z,10.40
2019-04-21T21:27:36.712Z,10.20
2019-04-21T21:30:10.024Z,10.10
2019-04-21T21:32:44.243Z,10.10
2019-04-21T21:35:18.879Z,10.00
2019-04-21T21:37:54.964Z,9.90
2019-04-21T21:40:26.674Z,9.80
2019-04-21T21:42:44.267Z,9.70
2019-04-21T21:45:18.390Z,9.60
2019-04-21T21:48:07.000Z,9.50
2019-04-21T21:50:28.239Z,9.50
2019-04-21T21:53:03.304Z,9.40
2019-04-21T21:55:27.763Z,9.40
2019-04-21T21:58:03.487Z,9.40
2019-04-21T22:00:32.313Z,9.40
2019-04-21T22:03:11.946Z,9.30
2019-04-21T22:05:45.585Z,9.30
2019-04-21T22:08:06.820Z,9.20
2019-04-21T22:10:37.205Z,9.20
2019-04-21T22:13:12.441Z,9.20
2019-04-21T22:15:41.657Z,9.10
2019-04-21T22:18:28.781Z,9.10
2019-04-21T22:21:03.542Z,9.10
2019-04-21T22:23:32.123Z,9.00
2019-04-21T22:25:51.461Z,9.00
2019-04-21T22:28:23.171Z,8.90
2019-04-21T22:30:55.170Z,8.90
2019-04-21T22:33:31.245Z,8.90
2019-04-21T22:36:05.399Z,8.80
2019-04-21T22:38:43.756Z,8.80
2019-04-21T22:41:15.692Z,8.80
2019-04-21T22:43:40.496Z,8.70
2019-04-21T22:46:07.321Z,8.60
2019-04-21T22:48:46.520Z,8.50
2019-04-21T22:51:23.797Z,8.40
2019-04-21T22:53:53.501Z,8.40
2019-04-21T22:56:26.849Z,8.40
2019-04-21T22:58:55.011Z,8.30
2019-04-21T23:01:35.350Z,8.30
2019-04-21T23:04:02.875Z,8.20
2019-04-21T23:06:35.751Z,8.10
2019-04-21T23:09:12.894Z,8.10
2019-04-21T23:11:49.182Z,8.10
2019-04-21T23:14:17.052Z,8.00
2019-04-21T23:16:51.724Z,8.00
2019-04-21T23:19:35.710Z,8.00
2019-04-21T23:22:14.707Z,8.00
2019-04-21T23:24:45.643Z,8.00
2019-04-21T23:27:17.254Z,8.00
2019-04-21T23:29:59.039Z,8.00
2019-04-21T23:32:19.578Z,8.00
2019-04-21T23:34:40.316Z,8.00
2019-04-21T23:37:16.307Z,8.00
2019-04-21T23:39:41.662Z,7.90
2019-04-21T23:42:11.419Z,7.80
2019-04-21T23:44:45.883Z,7.80
2019-04-21T23:47:27.900Z,7.70
2019-04-21T23:49:53.119Z,7.70
2019-04-21T23:52:17.829Z,7.60
2019-04-21T23:54:47.792Z,7.60
2019-04-21T23:57:27.845Z,7.60
2019-04-21T23:59:53.959Z,7.60
